createdAt,value
2022-12-31T00:01:26.775Z,13.93
2022-12-31T00:03:54.167Z,13.92
2022-12-31T00:06:25.723Z,13.67
2022-12-31T00:08:54.692Z,13.55
2022-12-31T00:11:22.731Z,13.64
2022-12-31T00:13:50.255Z,13.47
2022-12-31T00:16:25.941Z,13.57
2022-12-31T00:18:55.490Z,13.65
2022-12-31T00:21:21.953Z,13.67
2022-12-31T00:23:49.378Z,13.48
2022-12-31T00:26:18.871Z,13.57
2022-12-31T00:28:45.747Z,13.65
2022-12-31T00:31:27.223Z,13.61
2022-12-31T00:33:54.358Z,13.65
2022-12-31T00:36:29.751Z,13.68
2022-12-31T00:38:57.743Z,13.77
2022-12-31T00:41:26.366Z,13.77
2022-12-31T00:43:53.270Z,13.59
2022-12-31T00:46:20.840Z,13.53
2022-12-31T00:48:48.161Z,13.72
2022-12-31T00:51:17.462Z,13.75
2022-12-31T00:53:44.037Z,13.73
2022-12-31T00:56:14.756Z,13.78
2022-12-31T00:58:41.656Z,13.72
2022-12-31T01:01:20.563Z,13.83
2022-12-31T01:03:48.914Z,13.65
2022-12-31T01:06:16.477Z,13.72
2022-12-31T01:08:43.741Z,13.66
2022-12-31T01:11:18.909Z,13.67
2022-12-31T01:13:47.594Z,13.81
2022-12-31T01:16:14.778Z,13.94
2022-12-31T01:18:42.240Z,13.86
2022-12-31T01:21:11.003Z,13.86
2022-12-31T01:23:37.876Z,13.71
2022-12-31T01:26:06.976Z,13.77
2022-12-31T01:28:33.795Z,13.58
2022-12-31T01:31:04.898Z,13.64
2022-12-31T01:33:31.568Z,13.43
2022-12-31T01:36:06.375Z,13.53
2022-12-31T01:38:34.202Z,13.55
2022-12-31T01:41:01.806Z,13.73
2022-12-31T01:43:48.137Z,13.74
2022-12-31T01:46:23.465Z,13.63
2022-12-31T01:48:53.105Z,13.62
2022-12-31T01:51:20.824Z,13.51
2022-12-31T01:53:48.543Z,13.52
2022-12-31T01:56:15.943Z,13.67
2022-12-31T01:58:49.490Z,13.67
2022-12-31T02:01:31.059Z,13.67
2022-12-31T02:04:01.954Z,13.40
2022-12-31T02:06:35.148Z,13.42
2022-12-31T02:09:01.795Z,13.59
2022-12-31T02:11:31.267Z,13.52
2022-12-31T02:14:03.641Z,13.54
2022-12-31T02:17:06.846Z,13.54
2022-12-31T02:19:39.156Z,13.38
2022-12-31T02:22:36.476Z,13.68
2022-12-31T02:25:27.108Z,13.32
2022-12-31T02:28:11.843Z,13.60
2022-12-31T02:30:41.683Z,13.60
2022-12-31T02:33:17.712Z,13.67
2022-12-31T02:35:55.788Z,13.66
2022-12-31T02:38:31.248Z,13.67
2022-12-31T02:40:58.964Z,13.69
2022-12-31T02:43:26.016Z,13.72
2022-12-31T02:46:26.733Z,13.46
2022-12-31T02:49:05.709Z,13.49
2022-12-31T02:51:51.762Z,13.45
2022-12-31T02:54:55.142Z,13.50
2022-12-31T02:57:30.656Z,13.58
2022-12-31T03:00:37.183Z,13.64
2022-12-31T03:03:05.823Z,13.51
2022-12-31T03:05:37.554Z,13.74
2022-12-31T03:08:04.170Z,13.53
2022-12-31T03:10:30.741Z,13.47
2022-12-31T03:12:57.285Z,13.61
2022-12-31T03:15:29.439Z,13.62
2022-12-31T03:18:03.840Z,13.74
2022-12-31T03:20:52.299Z,13.77
2022-12-31T03:23:23.404Z,13.83
2022-12-31T03:25:50.014Z,13.82
2022-12-31T03:28:21.992Z,13.96
2022-12-31T03:30:52.412Z,14.15
2022-12-31T03:33:19.493Z,14.13
2022-12-31T03:35:47.511Z,14.23
2022-12-31T03:38:15.118Z,14.41
2022-12-31T03:40:45.508Z,14.43
2022-12-31T03:43:12.384Z,14.49
2022-12-31T03:45:39.482Z,14.41
2022-12-31T03:48:08.010Z,14.81
2022-12-31T03:50:34.634Z,14.58
2022-12-31T03:53:01.412Z,14.74
2022-12-31T03:55:27.946Z,14.60
2022-12-31T03:57:54.488Z,14.67
2022-12-31T04:00:22.067Z,14.57
2022-12-31T04:02:50.076Z,14.06
2022-12-31T04:05:18.055Z,14.12
2022-12-31T04:07:45.020Z,13.84
2022-12-31T04:10:14.917Z,13.48
2022-12-31T04:12:41.772Z,13.71
2022-12-31T04:15:10.382Z,13.86
2022-12-31T04:17:37.297Z,13.90
2022-12-31T04:20:04.538Z,13.87
2022-12-31T04:22:31.107Z,13.91
2022-12-31T04:24:57.654Z,13.92
2022-12-31T04:27:30.197Z,13.87
2022-12-31T04:29:56.752Z,14.05
2022-12-31T04:32:23.931Z,13.80
2022-12-31T04:34:50.448Z,13.90
2022-12-31T04:37:16.995Z,13.85
2022-12-31T04:39:43.478Z,13.95
2022-12-31T04:42:09.969Z,13.98
2022-12-31T04:44:36.552Z,14.01
2022-12-31T04:47:03.076Z,14.07
2022-12-31T04:49:29.627Z,13.82
2022-12-31T04:51:56.206Z,13.92
2022-12-31T04:54:22.866Z,14.05
2022-12-31T04:56:49.487Z,13.89
2022-12-31T04:59:16.129Z,13.91
2022-12-31T05:01:42.708Z,13.75
2022-12-31T05:04:09.279Z,13.90
2022-12-31T05:06:35.915Z,13.90
2022-12-31T05:09:02.466Z,13.74
2022-12-31T05:11:29.092Z,13.75
2022-12-31T05:13:55.634Z,13.79
2022-12-31T05:16:22.578Z,13.78
2022-12-31T05:18:49.140Z,13.83
2022-12-31T05:21:20.240Z,13.79
2022-12-31T05:23:47.788Z,13.92
2022-12-31T05:26:15.198Z,13.84
2022-12-31T05:28:41.980Z,13.97
2022-12-31T05:31:08.547Z,14.03
2022-12-31T05:33:35.258Z,13.97
2022-12-31T05:36:01.835Z,13.80
2022-12-31T05:38:28.356Z,13.85
2022-12-31T05:41:06.374Z,13.77
2022-12-31T05:43:33.298Z,13.83
2022-12-31T05:46:02.152Z,13.81
2022-12-31T05:48:29.092Z,13.72
2022-12-31T05:50:55.741Z,13.90
2022-12-31T05:53:22.753Z,13.87
2022-12-31T05:55:50.511Z,13.93
2022-12-31T05:58:17.298Z,14.03
2022-12-31T06:00:44.266Z,14.02
2022-12-31T06:03:11.180Z,14.06
2022-12-31T06:05:42.659Z,14.07
2022-12-31T06:08:10.732Z,14.18
2022-12-31T06:10:38.428Z,14.18
2022-12-31T06:13:05.083Z,14.25
2022-12-31T06:15:32.028Z,14.45
2022-12-31T06:17:58.690Z,14.55
2022-12-31T06:20:25.283Z,14.61
2022-12-31T06:22:51.848Z,14.64
2022-12-31T06:25:18.496Z,14.80
2022-12-31T06:27:45.076Z,14.95
2022-12-31T06:30:12.297Z,15.17
2022-12-31T06:32:40.629Z,15.33
2022-12-31T06:35:07.674Z,15.41
2022-12-31T06:37:34.258Z,15.70
2022-12-31T06:40:01.029Z,15.58
2022-12-31T06:42:31.528Z,15.66
2022-12-31T06:44:58.828Z,15.80
2022-12-31T06:47:25.908Z,15.76
2022-12-31T06:49:53.239Z,15.76
2022-12-31T06:52:22.814Z,15.74
2022-12-31T06:54:49.406Z,15.89
2022-12-31T06:57:16.395Z,15.88
2022-12-31T06:59:44.726Z,15.83
2022-12-31T07:02:27.206Z,15.92
2022-12-31T07:04:56.602Z,15.87
2022-12-31T07:07:33.113Z,15.86
2022-12-31T07:10:29.504Z,15.83
2022-12-31T07:13:02.493Z,15.82
2022-12-31T07:16:11.201Z,15.73
2022-12-31T07:18:42.412Z,15.94
2022-12-31T07:21:15.188Z,15.92
2022-12-31T07:23:42.841Z,15.94
2022-12-31T07:26:31.883Z,15.75
2022-12-31T07:29:04.360Z,15.89
2022-12-31T07:31:55.245Z,15.84
2022-12-31T07:34:43.868Z,15.82
2022-12-31T07:37:16.349Z,15.93
2022-12-31T07:39:51.804Z,15.84
2022-12-31T07:42:32.697Z,15.96
2022-12-31T07:45:10.338Z,16.08
2022-12-31T07:47:37.181Z,16.34
2022-12-31T07:50:04.150Z,16.36
2022-12-31T07:52:31.056Z,16.21
2022-12-31T07:54:57.625Z,16.36
2022-12-31T07:57:31.738Z,16.33
2022-12-31T08:00:24.576Z,16.24
2022-12-31T08:03:04.212Z,16.36
2022-12-31T08:05:40.171Z,16.47
2022-12-31T08:08:48.970Z,16.47
2022-12-31T08:11:30.826Z,16.55
2022-12-31T08:14:02.090Z,16.51
2022-12-31T08:16:29.744Z,16.56
2022-12-31T08:18:57.459Z,16.63
2022-12-31T08:21:51.427Z,16.61
2022-12-31T08:24:36.048Z,16.65
2022-12-31T08:27:16.990Z,16.72
2022-12-31T08:30:12.915Z,16.71
2022-12-31T08:33:04.182Z,16.69
2022-12-31T08:35:56.115Z,16.79
2022-12-31T08:38:54.807Z,16.97
2022-12-31T08:41:30.281Z,16.84
2022-12-31T08:44:04.353Z,16.94
2022-12-31T08:46:56.512Z,16.85
2022-12-31T08:49:27.414Z,16.94
2022-12-31T08:51:54.334Z,17.07
2022-12-31T08:54:21.237Z,16.99
2022-12-31T08:57:00.882Z,17.04
2022-12-31T08:59:42.656Z,17.01
2022-12-31T09:02:34.349Z,16.98
2022-12-31T09:05:24.966Z,17.06
2022-12-31T09:08:09.968Z,17.12
2022-12-31T09:11:10.622Z,17.15
2022-12-31T09:13:43.687Z,17.14
2022-12-31T09:16:28.861Z,17.21
2022-12-31T09:18:55.512Z,17.26
2022-12-31T09:21:22.269Z,17.31
2022-12-31T09:23:49.268Z,17.33
2022-12-31T09:26:31.623Z,17.29
2022-12-31T09:29:14.266Z,17.26
2022-12-31T09:32:10.394Z,17.43
2022-12-31T09:34:48.976Z,17.47
2022-12-31T09:37:20.910Z,17.47
2022-12-31T09:39:48.161Z,17.58
2022-12-31T09:42:26.851Z,17.51
2022-12-31T09:45:15.542Z,17.53
2022-12-31T09:48:23.672Z,17.60
2022-12-31T09:50:59.464Z,17.49
2022-12-31T09:53:39.165Z,17.46
2022-12-31T09:56:12.364Z,17.55
2022-12-31T09:58:49.626Z,17.66
2022-12-31T10:01:16.182Z,17.69
2022-12-31T10:03:52.118Z,17.62
2022-12-31T10:06:46.557Z,17.50
2022-12-31T10:09:36.007Z,17.48
2022-12-31T10:12:14.421Z,17.56
2022-12-31T10:15:05.947Z,17.46
2022-12-31T10:17:58.773Z,17.45
2022-12-31T10:20:31.281Z,17.58
2022-12-31T10:23:17.081Z,17.42
2022-12-31T10:26:11.367Z,17.42
2022-12-31T10:28:43.785Z,17.39
2022-12-31T10:31:14.777Z,17.47
2022-12-31T10:33:49.355Z,17.39
2022-12-31T10:36:26.303Z,17.29
2022-12-31T10:39:15.327Z,17.16
2022-12-31T10:42:02.582Z,17.13
2022-12-31T10:44:39.306Z,17.14
2022-12-31T10:47:38.373Z,17.09
2022-12-31T10:50:41.741Z,17.10
2022-12-31T10:53:28.503Z,17.30
2022-12-31T10:56:40.237Z,17.31
2022-12-31T10:59:16.009Z,17.34
2022-12-31T11:01:45.662Z,17.29
2022-12-31T11:04:27.325Z,17.24
2022-12-31T11:07:10.311Z,17.11
2022-12-31T11:09:58.628Z,17.23
2022-12-31T11:13:18.753Z,17.20
2022-12-31T11:16:03.369Z,17.16
2022-12-31T11:18:43.168Z,17.35
2022-12-31T11:21:40.979Z,17.32
2022-12-31T11:24:37.089Z,17.37
2022-12-31T11:27:24.687Z,17.55
2022-12-31T11:30:25.228Z,17.39
2022-12-31T11:32:51.981Z,17.55
2022-12-31T11:35:43.682Z,17.70
2022-12-31T11:38:17.933Z,17.64
2022-12-31T11:41:23.633Z,17.71
2022-12-31T11:44:17.932Z,17.93
2022-12-31T11:46:47.689Z,18.20
2022-12-31T11:49:32.978Z,18.05
2022-12-31T11:52:23.042Z,18.13
2022-12-31T11:55:15.996Z,18.16
2022-12-31T11:57:48.680Z,18.16
2022-12-31T12:00:20.512Z,18.10
2022-12-31T12:02:50.254Z,18.11
2022-12-31T12:05:20.291Z,18.01
2022-12-31T12:07:48.060Z,17.94
2022-12-31T12:10:17.818Z,18.21
2022-12-31T12:12:44.471Z,18.18
2022-12-31T12:15:21.598Z,18.05
2022-12-31T12:17:57.431Z,18.09
2022-12-31T12:20:51.102Z,18.03
2022-12-31T12:23:26.544Z,18.01
2022-12-31T12:25:53.329Z,18.08
2022-12-31T12:28:27.589Z,17.93
2022-12-31T12:31:01.989Z,18.01
2022-12-31T12:33:30.745Z,17.89
2022-12-31T12:36:12.788Z,17.90
2022-12-31T12:38:39.845Z,17.94
2022-12-31T12:41:11.993Z,17.95
2022-12-31T12:43:39.933Z,18.00
2022-12-31T12:46:27.663Z,17.93
2022-12-31T12:48:57.652Z,18.07
2022-12-31T12:51:39.082Z,18.03
2022-12-31T12:54:33.735Z,18.00
2022-12-31T12:57:09.395Z,17.95
2022-12-31T12:59:39.738Z,17.92
2022-12-31T13:02:31.563Z,18.03
2022-12-31T13:05:13.338Z,18.04
2022-12-31T13:07:54.211Z,18.13
2022-12-31T13:10:57.074Z,17.99
2022-12-31T13:13:45.329Z,18.08
2022-12-31T13:16:39.238Z,17.93
2022-12-31T13:19:15.091Z,17.92
2022-12-31T13:21:50.877Z,17.95
2022-12-31T13:24:48.404Z,17.84
2022-12-31T13:27:35.323Z,17.94
2022-12-31T13:30:04.506Z,17.76
2022-12-31T13:32:42.983Z,17.85
2022-12-31T13:35:44.597Z,17.67
2022-12-31T13:38:28.477Z,17.82
2022-12-31T13:40:57.965Z,17.54
2022-12-31T13:43:30.266Z,17.57
2022-12-31T13:46:37.367Z,17.20
2022-12-31T13:49:14.236Z,17.27
2022-12-31T13:51:50.219Z,17.09
2022-12-31T13:54:30.125Z,17.03
2022-12-31T13:57:07.253Z,17.18
2022-12-31T13:59:41.013Z,17.09
2022-12-31T14:02:31.612Z,17.20
2022-12-31T14:05:12.976Z,17.32
2022-12-31T14:07:50.491Z,17.09
2022-12-31T14:10:27.170Z,17.21
2022-12-31T14:13:05.498Z,17.02
2022-12-31T14:15:48.449Z,17.09
2022-12-31T14:18:33.237Z,17.34
2022-12-31T14:21:18.665Z,17.36
2022-12-31T14:24:13.514Z,17.37
2022-12-31T14:26:43.425Z,17.31
2022-12-31T14:29:09.963Z,17.23
2022-12-31T14:31:48.678Z,17.25
2022-12-31T14:34:40.308Z,17.25
2022-12-31T14:37:22.047Z,17.32
2022-12-31T14:40:04.017Z,17.09
2022-12-31T14:42:56.990Z,17.23
2022-12-31T14:45:53.672Z,17.22
2022-12-31T14:48:44.604Z,16.99
2022-12-31T14:51:12.846Z,16.95
2022-12-31T14:53:39.595Z,17.02
2022-12-31T14:56:25.403Z,16.95
2022-12-31T14:59:00.943Z,16.92
2022-12-31T15:01:28.100Z,16.87
2022-12-31T15:03:57.924Z,16.71
2022-12-31T15:06:24.362Z,16.73
2022-12-31T15:09:19.671Z,16.76
2022-12-31T15:12:04.362Z,16.96
2022-12-31T15:14:55.441Z,16.92
2022-12-31T15:17:53.229Z,16.93
2022-12-31T15:20:44.561Z,17.07
2022-12-31T15:23:39.305Z,17.03
2022-12-31T15:26:08.577Z,16.96
2022-12-31T15:28:38.177Z,17.12
2022-12-31T15:31:20.345Z,17.19
2022-12-31T15:33:56.778Z,17.11
2022-12-31T15:36:26.361Z,16.98
2022-12-31T15:39:05.801Z,17.12
2022-12-31T15:42:10.244Z,17.08
2022-12-31T15:44:48.077Z,17.18
2022-12-31T15:47:31.405Z,17.05
2022-12-31T15:50:15.123Z,17.09
2022-12-31T15:52:58.240Z,16.95
2022-12-31T15:55:41.494Z,17.15
2022-12-31T15:58:15.824Z,17.16
2022-12-31T16:00:51.561Z,16.86
2022-12-31T16:03:23.469Z,16.82
2022-12-31T16:05:51.319Z,16.75
2022-12-31T16:08:24.586Z,16.78
2022-12-31T16:10:53.809Z,16.64
2022-12-31T16:13:23.482Z,16.81
2022-12-31T16:15:53.352Z,16.78
2022-12-31T16:18:23.025Z,16.84
2022-12-31T16:20:51.695Z,16.67
2022-12-31T16:23:27.414Z,16.81
2022-12-31T16:26:00.507Z,16.89
2022-12-31T16:28:33.439Z,16.83
2022-12-31T16:31:06.963Z,16.76
2022-12-31T16:33:34.296Z,16.72
2022-12-31T16:36:01.812Z,16.60
2022-12-31T16:38:34.915Z,16.61
2022-12-31T16:41:01.428Z,16.71
2022-12-31T16:43:35.549Z,16.50
2022-12-31T16:46:31.975Z,16.51
2022-12-31T16:49:02.155Z,16.55
2022-12-31T16:51:37.292Z,16.47
2022-12-31T16:54:04.477Z,16.57
2022-12-31T16:56:38.164Z,16.53
2022-12-31T16:59:14.082Z,16.61
2022-12-31T17:01:42.569Z,16.55
2022-12-31T17:04:14.628Z,16.37
2022-12-31T17:06:42.586Z,16.41
2022-12-31T17:09:22.372Z,16.40
2022-12-31T17:11:57.250Z,16.61
2022-12-31T17:14:29.033Z,16.63
2022-12-31T17:17:03.613Z,16.63
2022-12-31T17:19:38.871Z,16.73
2022-12-31T17:22:10.263Z,16.59
2022-12-31T17:24:38.665Z,16.63
2022-12-31T17:27:07.374Z,16.49
2022-12-31T17:29:35.074Z,16.51
2022-12-31T17:32:07.294Z,16.44
2022-12-31T17:34:47.152Z,16.37
2022-12-31T17:37:18.655Z,16.40
2022-12-31T17:39:49.905Z,16.33
2022-12-31T17:42:31.573Z,16.43
2022-12-31T17:45:05.665Z,16.57
2022-12-31T17:47:40.186Z,16.52
2022-12-31T17:50:19.209Z,16.64
2022-12-31T17:52:46.820Z,16.58
2022-12-31T17:55:13.918Z,16.81
2022-12-31T17:57:50.675Z,16.78
2022-12-31T18:00:24.455Z,16.68
2022-12-31T18:02:51.270Z,16.48
2022-12-31T18:05:20.365Z,16.68
2022-12-31T18:07:47.474Z,16.65
2022-12-31T18:10:16.199Z,16.68
2022-12-31T18:12:44.247Z,16.56
2022-12-31T18:15:22.743Z,16.75
2022-12-31T18:17:49.671Z,16.68
2022-12-31T18:20:17.535Z,16.58
2022-12-31T18:22:45.103Z,16.69
2022-12-31T18:25:15.995Z,16.67
2022-12-31T18:27:42.591Z,16.72
2022-12-31T18:30:11.145Z,16.64
2022-12-31T18:32:39.840Z,16.72
2022-12-31T18:35:48.594Z,16.86
2022-12-31T18:38:03.471Z,16.83
2022-12-31T18:40:30.204Z,16.85
2022-12-31T18:43:02.692Z,16.75
2022-12-31T18:45:31.445Z,16.75
2022-12-31T18:47:57.993Z,16.94
2022-12-31T18:50:24.591Z,16.78
2022-12-31T18:52:51.157Z,16.82
2022-12-31T18:55:20.669Z,16.61
2022-12-31T18:57:47.167Z,16.86
2022-12-31T19:00:14.255Z,16.71
2022-12-31T19:02:40.944Z,16.67
2022-12-31T19:05:26.342Z,16.55
2022-12-31T19:07:53.751Z,16.71
2022-12-31T19:10:21.305Z,16.67
2022-12-31T19:12:48.165Z,16.68
2022-12-31T19:15:29.598Z,16.67
2022-12-31T19:17:56.974Z,16.52
2022-12-31T19:20:23.911Z,16.71
2022-12-31T19:22:50.480Z,16.55
2022-12-31T19:25:21.928Z,16.48
2022-12-31T19:27:49.238Z,16.58
2022-12-31T19:30:19.325Z,16.82
2022-12-31T19:32:45.828Z,16.71
2022-12-31T19:35:14.037Z,16.55
2022-12-31T19:37:43.639Z,16.58
2022-12-31T19:40:18.424Z,16.66
2022-12-31T19:42:45.687Z,16.61
2022-12-31T19:48:32.557Z,16.65
2022-12-31T19:50:59.895Z,16.63
2022-12-31T19:53:27.454Z,16.65
2022-12-31T19:55:54.343Z,16.70
2022-12-31T19:58:26.065Z,16.53
2022-12-31T20:00:59.594Z,16.47
2022-12-31T20:03:28.741Z,16.57
2022-12-31T20:06:09.605Z,16.60
2022-12-31T20:08:38.487Z,16.50
2022-12-31T20:11:24.487Z,16.41
2022-12-31T20:13:53.444Z,16.38
2022-12-31T20:16:22.356Z,16.42
2022-12-31T20:18:52.354Z,16.58
2022-12-31T20:21:25.002Z,16.43
2022-12-31T20:23:53.065Z,16.59
2022-12-31T20:26:21.136Z,16.54
2022-12-31T20:28:48.283Z,16.42
2022-12-31T20:31:17.146Z,16.45
2022-12-31T20:33:44.034Z,16.54
2022-12-31T20:36:13.651Z,16.54
2022-12-31T20:38:40.837Z,16.65
2022-12-31T20:41:19.182Z,16.48
2022-12-31T20:43:46.405Z,16.47
2022-12-31T20:46:21.880Z,16.72
2022-12-31T20:48:50.893Z,16.66
2022-12-31T20:51:18.754Z,16.61
2022-12-31T20:53:47.844Z,16.49
2022-12-31T20:56:15.298Z,16.63
2022-12-31T20:58:42.005Z,16.62
2022-12-31T21:01:10.823Z,16.65
2022-12-31T21:06:31.069Z,16.67
2022-12-31T21:08:59.365Z,16.74
2022-12-31T21:11:45.009Z,16.62
2022-12-31T21:14:11.549Z,16.58
2022-12-31T21:16:38.231Z,16.54
2022-12-31T21:19:05.525Z,16.46
2022-12-31T21:21:32.228Z,16.61
2022-12-31T21:23:58.763Z,16.64
2022-12-31T21:26:25.390Z,16.50
2022-12-31T21:28:55.046Z,16.49
2022-12-31T21:31:21.664Z,16.41
2022-12-31T21:33:49.064Z,16.49
2022-12-31T21:36:16.252Z,16.51
2022-12-31T21:38:43.826Z,16.46
2022-12-31T21:41:35.103Z,16.34
2022-12-31T21:44:02.098Z,16.40
2022-12-31T21:46:29.337Z,16.35
2022-12-31T21:48:58.060Z,16.41
2022-12-31T21:51:25.118Z,16.41
2022-12-31T21:53:51.765Z,16.48
2022-12-31T21:56:21.123Z,16.32
2022-12-31T21:59:12.318Z,16.41
2022-12-31T22:01:57.787Z,16.53
2022-12-31T22:05:00.463Z,16.64
2022-12-31T22:07:11.005Z,16.47
2022-12-31T22:09:37.555Z,16.33
2022-12-31T22:12:04.357Z,16.41
2022-12-31T22:14:30.916Z,16.63
2022-12-31T22:16:57.405Z,16.54
2022-12-31T22:19:24.631Z,16.57
2022-12-31T22:21:51.239Z,16.59
2022-12-31T22:24:18.010Z,16.64
2022-12-31T22:26:46.696Z,16.48
2022-12-31T22:29:13.670Z,16.46
2022-12-31T22:31:40.312Z,16.51
2022-12-31T22:34:07.047Z,16.57
2022-12-31T22:36:33.660Z,16.42
2022-12-31T22:39:00.186Z,16.47
2022-12-31T22:41:28.181Z,16.51
2022-12-31T22:44:03.112Z,16.41
2022-12-31T22:46:30.815Z,16.63
2022-12-31T22:48:59.235Z,16.78
2022-12-31T22:51:54.739Z,16.61
2022-12-31T22:54:13.809Z,16.50
2022-12-31T22:56:40.831Z,16.61
2022-12-31T22:59:07.450Z,16.64
2022-12-31T23:01:34.465Z,16.56
2022-12-31T23:04:01.191Z,16.65
2022-12-31T23:06:28.966Z,16.68
2022-12-31T23:09:15.349Z,16.50
2022-12-31T23:11:43.207Z,16.53
2022-12-31T23:14:35.066Z,16.50
2022-12-31T23:17:30.504Z,16.45
2022-12-31T23:20:21.152Z,16.53
2022-12-31T23:23:07.734Z,16.43
2022-12-31T23:25:46.600Z,16.62
2022-12-31T23:28:24.612Z,16.53
2022-12-31T23:30:51.959Z,16.66
2022-12-31T23:33:28.155Z,16.56
2022-12-31T23:36:07.587Z,16.56
2022-12-31T23:38:34.225Z,16.60
2022-12-31T23:41:00.749Z,16.59
2022-12-31T23:43:27.235Z,16.51
2022-12-31T23:45:53.962Z,16.62
2022-12-31T23:48:20.705Z,16.56
2022-12-31T23:50:53.721Z,16.47
2022-12-31T23:53:27.031Z,16.65
2022-12-31T23:56:12.892Z,16.67
2022-12-31T23:58:42.867Z,16.59
